Time;durP1;ratioP1;P1;durP2;ratioP2;P2;SDS_P1;SDS_P2;PMS_P1;PMS_P2;Temp;Humidity;BMP_temperature;BMP_pressure;BME280_temperature;BME280_humidity;BME280_pressure;Samples;Min_cycle;Max_cycle;Signal;HPM_P1;HPM_P2
2021/04/03 00:02:04;;;;;;;2.08;1.70;;;23.30;54.90;;;;;;4978282;28;20663;-45
2021/04/03 00:04:30;;;;;;;2.75;1.85;;;23.30;55.00;;;;;;4976341;28;20502;-47
2021/04/03 00:06:56;;;;;;;2.30;1.80;;;23.30;54.90;;;;;;4983598;28;20231;-51
2021/04/03 00:09:22;;;;;;;2.70;2.03;;;23.30;54.90;;;;;;4991829;28;20218;-46
2021/04/03 00:11:48;;;;;;;2.10;1.90;;;23.30;54.90;;;;;;5004243;28;20211;-53
2021/04/03 00:14:14;;;;;;;2.60;2.00;;;23.30;54.90;;;;;;4977761;28;20208;-44
2021/04/03 00:16:40;;;;;;;1.90;1.80;;;23.30;54.90;;;;;;4979410;28;20235;-44
2021/04/03 00:19:06;;;;;;;3.75;2.45;;;23.30;54.90;;;;;;4987347;28;20226;-49
2021/04/03 00:21:32;;;;;;;1.80;1.70;;;23.30;54.80;;;;;;4989112;28;20200;-47
2021/04/03 00:23:58;;;;;;;2.37;1.80;;;23.30;54.80;;;;;;4982644;28;20208;-48
2021/04/03 00:26:24;;;;;;;2.73;1.80;;;23.40;54.90;;;;;;4983445;28;20235;-54
2021/04/03 00:28:50;;;;;;;2.33;2.13;;;23.30;54.80;;;;;;4981833;28;20219;-46
2021/04/03 00:31:18;;;;;;;2.53;2.03;;;23.30;54.90;;;;;;4983800;28;20258;-45
2021/04/03 00:33:44;;;;;;;2.55;1.73;;;23.30;54.80;;;;;;4991664;28;20235;-45
2021/04/03 00:36:10;;;;;;;2.00;1.67;;;23.30;54.90;;;;;;4992862;28;20242;-52
2021/04/03 00:38:35;;;;;;;2.90;1.80;;;23.30;55.50;;;;;;4993269;28;20223;-49
2021/04/03 00:41:01;;;;;;;3.55;2.00;;;23.30;54.80;;;;;;4975573;28;20201;-48
2021/04/03 00:43:27;;;;;;;3.10;1.88;;;23.30;55.00;;;;;;4986440;28;20204;-50
2021/04/03 00:45:53;;;;;;;2.83;2.00;;;23.30;55.00;;;;;;4983966;28;20239;-50
2021/04/03 00:48:19;;;;;;;2.55;1.75;;;23.30;55.00;;;;;;4989570;28;20691;-52
2021/04/03 00:50:45;;;;;;;2.08;1.80;;;23.30;55.10;;;;;;4972648;28;20211;-44
2021/04/03 00:53:11;;;;;;;2.13;1.85;;;23.30;55.00;;;;;;4983039;28;20213;-56
2021/04/03 00:55:37;;;;;;;2.42;1.90;;;23.30;55.10;;;;;;4975869;28;20227;-46
2021/04/03 00:58:03;;;;;;;2.87;2.00;;;23.30;55.10;;;;;;4976348;28;20231;-49
2021/04/03 01:00:29;;;;;;;1.75;1.60;;;23.30;55.10;;;;;;4980348;28;20566;-46
2021/04/03 01:02:55;;;;;;;2.70;1.87;;;23.30;55.00;;;;;;4986980;28;20201;-47
2021/04/03 01:05:21;;;;;;;1.60;1.50;;;23.30;54.90;;;;;;4985472;28;20211;-48
2021/04/03 01:07:47;;;;;;;2.33;1.80;;;23.30;54.90;;;;;;4981091;28;20220;-48
2021/04/03 01:10:14;;;;;;;2.35;1.70;;;23.30;54.80;;;;;;4992205;28;20262;-52
2021/04/03 01:12:40;;;;;;;1.65;1.55;;;23.30;54.80;;;;;;4978689;28;20639;-50
2021/04/03 01:15:06;;;;;;;3.10;1.83;;;23.30;54.70;;;;;;4974530;28;20209;-44
2021/04/03 01:17:32;;;;;;;2.97;1.67;;;23.30;54.70;;;;;;4985671;28;20255;-48
2021/04/03 01:19:58;;;;;;;2.10;1.77;;;23.30;54.70;;;;;;4992619;28;20294;-51
2021/04/03 01:22:24;;;;;;;2.10;1.90;;;23.30;54.80;;;;;;4992177;28;20227;-43
2021/04/03 01:24:50;;;;;;;2.03;1.63;;;23.30;54.70;;;;;;4979825;28;20567;-48
2021/04/03 01:27:16;;;;;;;3.20;1.70;;;23.30;54.60;;;;;;4986483;28;20239;-48
2021/04/03 01:29:42;;;;;;;2.67;1.80;;;23.30;54.50;;;;;;4975963;28;20262;-48
2021/04/03 01:32:07;;;;;;;3.20;1.80;;;23.30;54.50;;;;;;4981474;28;20722;-45
2021/04/03 01:34:33;;;;;;;1.70;1.60;;;23.30;54.40;;;;;;4983244;28;20211;-48
2021/04/03 01:36:59;;;;;;;1.83;1.73;;;23.30;54.50;;;;;;4992695;28;20593;-45
2021/04/03 01:39:25;;;;;;;1.90;1.48;;;23.30;54.50;;;;;;4978402;28;20271;-47
2021/04/03 01:41:51;;;;;;;2.10;1.70;;;23.30;54.40;;;;;;4973817;28;20201;-45
2021/04/03 01:44:17;;;;;;;2.00;1.80;;;23.30;54.50;;;;;;4987387;28;20208;-46
2021/04/03 01:46:43;;;;;;;2.13;1.52;;;23.30;54.50;;;;;;4983922;28;20238;-47
2021/04/03 01:49:09;;;;;;;3.58;1.73;;;23.30;54.40;;;;;;4982951;28;20299;-45
2021/04/03 01:51:35;;;;;;;2.37;1.70;;;23.30;54.40;;;;;;4982007;28;20203;-50
2021/04/03 01:54:01;;;;;;;2.10;1.60;;;23.30;54.50;;;;;;4982637;28;20219;-45
2021/04/03 01:56:27;;;;;;;2.88;2.03;;;23.30;54.30;;;;;;4989744;28;20208;-46
2021/04/03 01:58:53;;;;;;;2.10;1.60;;;23.30;54.40;;;;;;4987401;28;20686;-49
2021/04/03 02:01:19;;;;;;;2.85;1.58;;;23.30;54.50;;;;;;4985523;28;20208;-48
2021/04/03 02:03:45;;;;;;;2.40;1.60;;;23.30;54.40;;;;;;4985048;28;20240;-44
2021/04/03 02:06:11;;;;;;;1.83;1.73;;;23.30;54.40;;;;;;4989147;28;20703;-48
2021/04/03 02:08:37;;;;;;;1.90;1.75;;;23.30;54.40;;;;;;4980171;28;20204;-46
2021/04/03 02:11:03;;;;;;;2.05;1.95;;;23.30;54.30;;;;;;4989814;28;20222;-49
2021/04/03 02:13:29;;;;;;;1.90;1.80;;;23.30;54.30;;;;;;4991824;28;20307;-49
2021/04/03 02:15:55;;;;;;;2.15;1.58;;;23.30;54.30;;;;;;4977278;28;20211;-46
2021/04/03 02:18:21;;;;;;;1.98;1.83;;;23.30;54.90;;;;;;4990732;28;20700;-48
2021/04/03 02:20:47;;;;;;;2.70;1.65;;;23.30;54.20;;;;;;4984047;28;20569;-47
2021/04/03 02:23:13;;;;;;;1.70;1.58;;;23.30;54.30;;;;;;4987139;28;20235;-50
2021/04/03 02:25:39;;;;;;;1.80;1.70;;;23.20;54.20;;;;;;4991451;28;20219;-47
2021/04/03 02:28:05;;;;;;;1.75;1.40;;;23.20;54.20;;;;;;4984698;28;20559;-44
2021/04/03 02:30:31;;;;;;;1.83;1.73;;;23.20;54.20;;;;;;4987586;28;20246;-47
2021/04/03 02:32:57;;;;;;;1.73;1.63;;;23.20;54.20;;;;;;4983084;28;20570;-51
2021/04/03 02:35:23;;;;;;;1.80;1.55;;;23.20;54.20;;;;;;4991870;28;20200;-48
2021/04/03 02:37:49;;;;;;;2.40;1.80;;;23.30;54.30;;;;;;4980162;28;20226;-48
2021/04/03 02:40:15;;;;;;;1.90;1.70;;;23.20;54.20;;;;;;4983034;28;20228;-48
2021/04/03 02:42:41;;;;;;;1.70;1.55;;;23.20;54.20;;;;;;4987682;28;20294;-44
2021/04/03 02:45:08;;;;;;;2.58;1.65;;;23.20;54.30;;;;;;4991346;28;20203;-52
2021/04/03 02:47:34;;;;;;;2.20;1.67;;;23.20;54.40;;;;;;4986897;28;20239;-43
2021/04/03 02:50:00;;;;;;;1.80;1.70;;;23.20;54.30;;;;;;4986700;28;20249;-46
2021/04/03 02:52:26;;;;;;;2.22;1.67;;;23.20;54.30;;;;;;4981495;28;20211;-47
2021/04/03 02:54:52;;;;;;;1.60;1.50;;;23.20;54.30;;;;;;4976447;28;20208;-53
2021/04/03 02:57:18;;;;;;;1.80;1.60;;;23.20;54.30;;;;;;4973046;28;20251;-50
2021/04/03 02:59:44;;;;;;;5.20;1.90;;;23.20;54.20;;;;;;4986014;28;20203;-47
2021/04/03 03:02:09;;;;;;;1.65;1.55;;;23.20;54.10;;;;;;4989170;28;20199;-47
2021/04/03 03:04:35;;;;;;;1.70;1.60;;;23.20;54.10;;;;;;4992350;28;20278;-45
2021/04/03 03:07:01;;;;;;;1.92;1.77;;;23.30;54.20;;;;;;4988083;28;20240;-48
2021/04/03 03:09:27;;;;;;;1.90;1.77;;;23.20;54.20;;;;;;4976724;28;20209;-50
2021/04/03 03:11:53;;;;;;;2.58;1.73;;;23.20;54.00;;;;;;4994942;28;20225;-45
2021/04/03 03:14:19;;;;;;;2.20;1.55;;;23.20;54.00;;;;;;4991319;28;20286;-46
2021/04/03 03:16:45;;;;;;;1.67;1.58;;;23.20;53.90;;;;;;4980590;28;20228;-51
2021/04/03 03:19:11;;;;;;;1.42;1.33;;;23.20;54.00;;;;;;4979829;28;20204;-47
2021/04/03 03:21:37;;;;;;;1.58;1.48;;;23.20;53.90;;;;;;4980980;28;20203;-46
2021/04/03 03:24:03;;;;;;;1.52;1.42;;;23.20;54.00;;;;;;4979240;28;20388;-48
2021/04/03 03:26:29;;;;;;;1.85;1.67;;;23.20;54.00;;;;;;4986841;28;20719;-49
2021/04/03 03:28:55;;;;;;;1.95;1.60;;;23.20;53.90;;;;;;4975263;28;20201;-52
2021/04/03 03:31:21;;;;;;;1.50;1.40;;;23.20;53.90;;;;;;4988728;28;20208;-50
2021/04/03 03:33:47;;;;;;;1.95;1.75;;;23.20;54.00;;;;;;4987964;28;20219;-49
2021/04/03 03:36:13;;;;;;;2.07;1.67;;;23.20;54.10;;;;;;4984896;28;20290;-50
2021/04/03 03:38:39;;;;;;;1.50;1.40;;;23.20;54.10;;;;;;4972695;28;20204;-46
2021/04/03 03:41:05;;;;;;;1.80;1.70;;;23.20;54.10;;;;;;4976233;28;20515;-52
2021/04/03 03:43:31;;;;;;;2.08;1.60;;;23.20;54.10;;;;;;4991618;28;20301;-44
2021/04/03 03:45:57;;;;;;;1.77;1.67;;;23.20;54.10;;;;;;4984931;28;20567;-45
2021/04/03 03:48:23;;;;;;;2.17;1.60;;;23.20;54.00;;;;;;4989241;28;20206;-47
2021/04/03 03:50:49;;;;;;;2.83;1.80;;;23.20;53.90;;;;;;4971584;28;20203;-48
2021/04/03 03:53:15;;;;;;;1.75;1.65;;;23.20;54.00;;;;;;4975962;28;20204;-45
2021/04/03 03:55:41;;;;;;;1.83;1.73;;;23.20;53.90;;;;;;4988546;28;20691;-46
2021/04/03 03:58:07;;;;;;;1.60;1.48;;;23.20;54.00;;;;;;4991489;28;20238;-54
2021/04/03 04:00:33;;;;;;;1.50;1.40;;;23.20;54.00;;;;;;4983025;28;20207;-49
2021/04/03 04:02:59;;;;;;;2.10;1.73;;;23.20;54.00;;;;;;4982377;28;20680;-48
2021/04/03 04:05:25;;;;;;;1.60;1.50;;;23.20;54.00;;;;;;4985704;28;20201;-49
2021/04/03 04:07:51;;;;;;;1.83;1.43;;;23.20;53.90;;;;;;4990692;28;20322;-47
2021/04/03 04:10:17;;;;;;;1.60;1.50;;;23.20;54.00;;;;;;4982872;28;20211;-50
2021/04/03 04:12:43;;;;;;;1.60;1.50;;;23.20;54.00;;;;;;4990211;28;20219;-48
2021/04/03 04:15:09;;;;;;;1.77;1.50;;;23.20;53.90;;;;;;4988325;28;20204;-45
2021/04/03 04:17:34;;;;;;;1.52;1.42;;;23.20;54.00;;;;;;4989849;28;20638;-44
2021/04/03 04:20:00;;;;;;;1.88;1.77;;;23.20;54.00;;;;;;4985824;28;20227;-43
2021/04/03 04:22:26;;;;;;;2.28;1.50;;;23.20;54.00;;;;;;4980186;28;20212;-44
2021/04/03 04:24:52;;;;;;;2.40;1.58;;;23.20;54.00;;;;;;4984094;28;20200;-45
2021/04/03 04:27:18;;;;;;;1.38;1.27;;;23.20;54.00;;;;;;4991441;28;20263;-51
2021/04/03 04:29:44;;;;;;;1.60;1.50;;;23.20;54.00;;;;;;4987161;28;20208;-54
2021/04/03 04:32:10;;;;;;;1.70;1.43;;;23.20;54.00;;;;;;4974303;28;20212;-48
2021/04/03 04:34:36;;;;;;;2.92;1.48;;;23.20;54.00;;;;;;4974307;28;20205;-47
2021/04/03 04:37:02;;;;;;;1.50;1.40;;;23.20;53.90;;;;;;4976052;28;20224;-49
2021/04/03 04:39:28;;;;;;;2.92;1.60;;;23.20;53.90;;;;;;4995050;28;20599;-47
2021/04/03 04:41:54;;;;;;;2.13;1.48;;;23.20;53.90;;;;;;4991727;28;20207;-48
2021/04/03 04:44:20;;;;;;;2.13;1.60;;;23.20;53.90;;;;;;4994119;28;20211;-49
2021/04/03 04:46:46;;;;;;;3.00;1.35;;;23.20;53.80;;;;;;4994820;28;20251;-47
2021/04/03 04:49:12;;;;;;;2.55;1.52;;;23.20;53.80;;;;;;4993201;28;20203;-51
2021/04/03 04:51:38;;;;;;;1.67;1.57;;;23.20;53.90;;;;;;4991624;28;20208;-52
2021/04/03 04:54:04;;;;;;;2.60;1.60;;;23.20;54.00;;;;;;4993587;28;20207;-47
2021/04/03 04:56:30;;;;;;;2.35;1.50;;;23.20;53.80;;;;;;4994475;28;20224;-50
2021/04/03 04:58:56;;;;;;;1.80;1.27;;;23.20;53.90;;;;;;4993128;28;20207;-50
2021/04/03 05:01:21;;;;;;;1.85;1.65;;;23.20;53.90;;;;;;4986523;28;20653;-46
2021/04/03 05:03:47;;;;;;;1.93;1.50;;;23.20;53.90;;;;;;4986954;28;20199;-49
2021/04/03 05:06:13;;;;;;;2.28;1.42;;;23.20;54.00;;;;;;4993639;28;20227;-59
2021/04/03 05:08:39;;;;;;;1.60;1.50;;;23.20;53.90;;;;;;4992923;28;20211;-47
2021/04/03 05:11:05;;;;;;;2.05;1.70;;;23.20;53.90;;;;;;4992147;28;20246;-52
2021/04/03 05:13:31;;;;;;;2.22;1.70;;;23.20;53.90;;;;;;4993198;28;20644;-46
2021/04/03 05:15:57;;;;;;;1.33;1.23;;;23.20;53.90;;;;;;4979243;28;20236;-48
2021/04/03 05:18:23;;;;;;;1.98;1.40;;;23.20;53.90;;;;;;4982638;28;20208;-48
2021/04/03 05:20:49;;;;;;;2.08;1.70;;;23.20;53.90;;;;;;4989576;28;20200;-51
2021/04/03 05:23:15;;;;;;;2.13;1.60;;;23.20;53.80;;;;;;4978908;28;20227;-48
2021/04/03 05:25:41;;;;;;;1.90;1.45;;;23.20;53.90;;;;;;4987603;28;20203;-46
2021/04/03 05:28:07;;;;;;;2.60;1.85;;;23.20;53.90;;;;;;4994337;28;20215;-43
2021/04/03 05:30:33;;;;;;;2.55;1.60;;;23.20;53.80;;;;;;4982767;28;20224;-44
2021/04/03 05:32:59;;;;;;;2.42;1.60;;;23.20;53.70;;;;;;4988356;28;20329;-43
2021/04/03 05:35:25;;;;;;;2.08;1.40;;;23.20;53.70;;;;;;4980107;28;20204;-47
2021/04/03 05:37:51;;;;;;;3.20;1.67;;;23.20;53.80;;;;;;4974833;28;20286;-44
2021/04/03 05:40:17;;;;;;;1.92;1.60;;;23.20;53.80;;;;;;4980058;28;20204;-47
2021/04/03 05:42:43;;;;;;;2.53;2.22;;;23.20;53.80;;;;;;4994041;28;20542;-51
2021/04/03 05:45:08;;;;;;;2.25;1.60;;;23.10;53.70;;;;;;4992171;28;20204;-47
2021/04/03 05:47:34;;;;;;;2.30;1.73;;;23.20;53.60;;;;;;4979978;28;20240;-44
2021/04/03 05:50:00;;;;;;;2.35;1.58;;;23.10;53.50;;;;;;4974064;28;20212;-47
2021/04/03 05:52:26;;;;;;;2.65;1.58;;;23.20;53.60;;;;;;4984510;28;20204;-47
2021/04/03 05:54:52;;;;;;;2.50;1.30;;;23.20;53.90;;;;;;4990008;28;20668;-48
2021/04/03 05:57:18;;;;;;;2.10;1.30;;;23.10;53.50;;;;;;4992616;28;20255;-44
2021/04/03 05:59:44;;;;;;;1.80;1.60;;;23.20;53.60;;;;;;4987749;28;20250;-46
2021/04/03 06:02:10;;;;;;;1.90;1.53;;;23.10;53.70;;;;;;4987922;28;20208;-43
2021/04/03 06:04:36;;;;;;;1.90;1.60;;;23.10;53.80;;;;;;4979509;28;20208;-45
2021/04/03 06:07:02;;;;;;;1.83;1.33;;;23.10;53.70;;;;;;4986299;28;20703;-51
2021/04/03 06:09:28;;;;;;;2.30;1.30;;;23.10;53.70;;;;;;4985268;28;20215;-53
2021/04/03 06:11:54;;;;;;;1.88;1.50;;;23.10;53.80;;;;;;4983604;28;20222;-43
2021/04/03 06:14:20;;;;;;;2.25;1.58;;;23.20;53.90;;;;;;4997281;28;20571;-43
2021/04/03 06:16:46;;;;;;;3.13;1.55;;;23.20;53.90;;;;;;4993152;28;20223;-46
2021/04/03 06:19:12;;;;;;;1.97;1.50;;;23.10;53.80;;;;;;4988966;28;20203;-44
2021/04/03 06:21:38;;;;;;;1.77;1.45;;;23.10;53.80;;;;;;4981386;28;20227;-44
2021/04/03 06:24:04;;;;;;;4.38;1.58;;;23.20;53.80;;;;;;4990878;28;20683;-50
2021/04/03 06:26:30;;;;;;;1.75;1.40;;;23.10;53.70;;;;;;4973832;28;20251;-47
2021/04/03 06:28:56;;;;;;;1.65;1.50;;;23.10;53.80;;;;;;4973639;28;20208;-45
2021/04/03 06:31:23;;;;;;;2.55;1.50;;;23.10;53.70;;;;;;4988841;28;20208;-46
2021/04/03 06:33:49;;;;;;;3.05;1.67;;;23.10;54.40;;;;;;4992681;28;20645;-45
2021/04/03 06:36:15;;;;;;;3.03;1.60;;;23.20;53.80;;;;;;4979667;28;20228;-46
2021/04/03 06:38:41;;;;;;;1.50;1.38;;;23.10;53.70;;;;;;4975931;28;20244;-43
2021/04/03 06:41:07;;;;;;;1.92;1.40;;;23.20;53.70;;;;;;4974970;28;20208;-45
2021/04/03 06:43:33;;;;;;;1.55;1.30;;;23.20;53.70;;;;;;4973930;28;20200;-44
2021/04/03 06:45:59;;;;;;;2.63;1.60;;;23.20;53.70;;;;;;4976747;28;20231;-44
2021/04/03 06:48:25;;;;;;;2.03;1.40;;;23.10;53.70;;;;;;4977668;28;20597;-53
2021/04/03 06:50:53;;;;;;;2.75;1.48;;;23.10;53.60;;;;;;4989932;28;20199;-43
2021/04/03 06:53:19;;;;;;;1.83;1.42;;;23.10;53.60;;;;;;4989599;28;20287;-46
2021/04/03 06:55:45;;;;;;;1.52;1.42;;;23.10;53.60;;;;;;4991547;28;20250;-43
2021/04/03 06:58:11;;;;;;;1.40;1.20;;;23.10;53.50;;;;;;4986514;28;20211;-43
2021/04/03 07:00:37;;;;;;;2.28;1.40;;;23.20;53.60;;;;;;4990685;28;20208;-47
2021/04/03 07:03:03;;;;;;;1.90;1.70;;;23.10;53.60;;;;;;4981495;28;20606;-44
2021/04/03 07:05:29;;;;;;;2.08;1.30;;;23.20;53.70;;;;;;4981571;28;20254;-43
2021/04/03 07:07:55;;;;;;;1.63;1.30;;;23.20;53.60;;;;;;4977698;28;20289;-47
2021/04/03 07:10:21;;;;;;;1.30;1.20;;;23.20;53.60;;;;;;4986372;28;20199;-45
2021/04/03 07:12:47;;;;;;;1.63;1.40;;;23.20;53.40;;;;;;4985555;28;20208;-46
2021/04/03 07:15:13;;;;;;;2.08;1.45;;;23.20;53.30;;;;;;4982676;28;20204;-43
2021/04/03 07:17:39;;;;;;;2.83;1.35;;;23.20;53.30;;;;;;4989528;28;20207;-44
2021/04/03 07:20:05;;;;;;;1.33;1.23;;;23.30;54.10;;;;;;4974455;28;20207;-44
2021/04/03 07:22:31;;;;;;;3.72;1.40;;;23.30;53.60;;;;;;4983699;28;20204;-46
2021/04/03 07:24:57;;;;;;;1.90;1.35;;;23.30;53.60;;;;;;4985607;28;20648;-43
2021/04/03 07:27:23;;;;;;;2.22;1.63;;;23.30;53.60;;;;;;4984602;28;20255;-44
2021/04/03 07:29:50;;;;;;;1.92;1.33;;;23.30;53.60;;;;;;4988204;28;20203;-44
2021/04/03 07:32:16;;;;;;;4.05;2.50;;;23.30;54.00;;;;;;4987397;28;20208;-44
2021/04/03 07:34:43;;;;;;;3.03;2.73;;;20.50;42.40;;;;;;4988964;28;20199;-45
2021/04/03 07:37:09;;;;;;;4.37;3.10;;;17.50;50.80;;;;;;4976004;28;20345;-45
2021/04/03 07:39:35;;;;;;;4.77;2.30;;;14.10;50.30;;;;;;4975634;28;20211;-44
2021/04/03 07:42:00;;;;;;;2.40;2.20;;;16.90;52.70;;;;;;4990276;28;20206;-49
2021/04/03 07:44:26;;;;;;;2.63;1.77;;;19.10;48.80;;;;;;4977722;28;20206;-48
2021/04/03 07:46:56;;;;;;;2.57;1.90;;;20.50;46.60;;;;;;4984703;28;20321;-43
2021/04/03 07:49:22;;;;;;;2.87;1.40;;;21.20;45.00;;;;;;4997124;28;20208;-44
2021/04/03 07:51:48;;;;;;;3.40;1.70;;;21.70;44.50;;;;;;5006393;28;20249;-43
2021/04/03 07:54:13;;;;;;;1.60;1.50;;;22.00;44.20;;;;;;4984221;28;20579;-43
2021/04/03 07:56:39;;;;;;;2.33;1.37;;;22.20;44.00;;;;;;4984761;28;20231;-53
2021/04/03 07:59:05;;;;;;;2.50;1.50;;;22.40;43.90;;;;;;4975677;28;20212;-51
2021/04/03 08:01:31;;;;;;;2.40;1.20;;;22.50;43.90;;;;;;4974765;28;20267;-48
2021/04/03 08:03:57;;;;;;;1.30;1.20;;;22.60;44.40;;;;;;4988120;28;20638;-55
2021/04/03 08:06:23;;;;;;;1.90;1.40;;;22.70;43.50;;;;;;4977334;28;20241;-50
2021/04/03 08:08:49;;;;;;;1.63;1.53;;;22.80;27.30;;;;;;4983295;28;20202;-47
2021/04/03 08:11:15;;;;;;;1.37;1.27;;;22.90;27.50;;;;;;4983078;28;20678;-50
2021/04/03 08:13:41;;;;;;;1.80;1.57;;;23.00;27.80;;;;;;4989532;28;20212;-51
2021/04/03 08:16:07;;;;;;;2.83;1.20;;;23.10;28.10;;;;;;4984578;28;20703;-43
2021/04/03 08:18:33;;;;;;;3.23;1.50;;;23.10;28.10;;;;;;4979971;28;20204;-44
2021/04/03 08:20:59;;;;;;;0.90;0.90;;;23.20;28.20;;;;;;5002356;28;20214;-48
2021/04/03 08:23:25;;;;;;;1.27;1.17;;;23.20;28.20;;;;;;4982284;28;20207;-47
2021/04/03 08:25:51;;;;;;;1.13;1.10;;;23.20;28.40;;;;;;4990579;28;20229;-46
2021/04/03 08:28:17;;;;;;;1.20;1.10;;;23.20;28.70;;;;;;4989034;28;20204;-46
2021/04/03 08:30:43;;;;;;;1.30;1.20;;;23.20;28.90;;;;;;4994444;28;20200;-49
2021/04/03 08:33:09;;;;;;;0.90;0.90;;;23.20;28.90;;;;;;4991374;28;20648;-47
2021/04/03 08:35:35;;;;;;;2.03;1.10;;;23.20;29.00;;;;;;4989811;28;20233;-44
2021/04/03 08:38:01;;;;;;;1.52;1.20;;;23.20;29.00;;;;;;4988828;28;20208;-46
2021/04/03 08:40:27;;;;;;;2.83;1.23;;;23.30;29.40;;;;;;4982209;28;20216;-44
2021/04/03 08:42:53;;;;;;;1.30;1.20;;;23.30;29.20;;;;;;4992224;28;20211;-51
2021/04/03 08:45:19;;;;;;;1.10;1.00;;;23.30;29.20;;;;;;4980911;28;20695;-45
2021/04/03 08:47:45;;;;;;;1.75;1.05;;;23.30;29.40;;;;;;4986493;28;20600;-44
2021/04/03 08:50:11;;;;;;;1.33;1.08;;;23.30;29.40;;;;;;4996121;28;20253;-48
2021/04/03 08:52:37;;;;;;;1.27;1.00;;;23.30;29.40;;;;;;4989882;28;20210;-48
2021/04/03 08:55:03;;;;;;;2.28;1.42;;;23.20;29.20;;;;;;4989799;28;20215;-51
2021/04/03 08:57:29;;;;;;;1.17;1.00;;;23.30;29.20;;;;;;4984013;28;20649;-56
2021/04/03 08:59:55;;;;;;;1.17;1.07;;;23.30;29.20;;;;;;4983076;28;20228;-51
2021/04/03 09:02:21;;;;;;;1.98;1.10;;;23.30;29.30;;;;;;4986019;28;20632;-53
2021/04/03 09:04:47;;;;;;;2.20;1.10;;;23.30;29.40;;;;;;4985875;28;20567;-51
2021/04/03 09:07:13;;;;;;;1.30;1.20;;;23.30;29.60;;;;;;4994210;28;20257;-52
2021/04/03 09:09:40;;;;;;;3.60;1.02;;;23.30;29.60;;;;;;4993804;28;20207;-49
2021/04/03 09:12:06;;;;;;;2.38;1.30;;;23.30;29.60;;;;;;4988680;28;20621;-51
2021/04/03 09:14:32;;;;;;;2.13;1.20;;;23.30;29.70;;;;;;4997428;28;20206;-56
2021/04/03 09:16:58;;;;;;;1.38;0.98;;;23.30;29.80;;;;;;4996967;28;20271;-51
2021/04/03 09:19:24;;;;;;;1.25;1.10;;;23.30;29.80;;;;;;4994342;28;20207;-45
2021/04/03 09:21:50;;;;;;;2.30;1.42;;;23.30;29.80;;;;;;4986098;28;20266;-49
2021/04/03 09:24:16;;;;;;;1.13;1.03;;;23.20;29.80;;;;;;4990894;28;20219;-52
2021/04/03 09:26:42;;;;;;;1.40;1.20;;;23.20;29.80;;;;;;4993693;28;20231;-47
2021/04/03 09:29:07;;;;;;;1.15;1.05;;;23.20;29.80;;;;;;4993003;28;20572;-53
2021/04/03 09:31:33;;;;;;;2.47;1.20;;;23.20;29.80;;;;;;4973931;28;20283;-50
2021/04/03 09:33:59;;;;;;;1.40;1.30;;;23.20;29.70;;;;;;4988488;28;20657;-46
2021/04/03 09:36:25;;;;;;;1.57;1.10;;;23.20;29.80;;;;;;4993455;28;20227;-52
2021/04/03 09:38:51;;;;;;;1.93;1.27;;;23.20;29.90;;;;;;4993788;28;20545;-46
2021/04/03 09:41:17;;;;;;;3.60;1.40;;;23.20;29.90;;;;;;4992947;28;20258;-46
2021/04/03 09:43:43;;;;;;;2.80;1.20;;;23.20;29.80;;;;;;4993150;28;20230;-44
2021/04/03 09:46:09;;;;;;;3.63;1.50;;;23.20;29.90;;;;;;4991793;28;20274;-48
2021/04/03 09:48:35;;;;;;;2.05;1.20;;;23.20;29.90;;;;;;4973634;28;20214;-48
2021/04/03 09:51:01;;;;;;;1.58;1.17;;;23.20;29.90;;;;;;4973078;28;20208;-47
2021/04/03 09:53:27;;;;;;;2.65;1.17;;;23.20;29.90;;;;;;4974182;28;20201;-46
2021/04/03 09:55:53;;;;;;;1.23;1.00;;;23.20;29.90;;;;;;4984881;28;20228;-47
2021/04/03 09:58:19;;;;;;;1.45;1.30;;;23.20;29.90;;;;;;4989805;28;20220;-49
2021/04/03 10:00:45;;;;;;;1.60;1.23;;;23.20;30.00;;;;;;4974708;28;20249;-53
2021/04/03 10:03:11;;;;;;;1.20;1.10;;;23.20;30.00;;;;;;4974553;28;20541;-50
2021/04/03 10:05:37;;;;;;;2.60;1.10;;;23.20;29.90;;;;;;4992694;28;20223;-52
2021/04/03 10:08:03;;;;;;;1.30;1.08;;;23.20;29.80;;;;;;4993232;28;20249;-53
2021/04/03 10:10:29;;;;;;;1.13;1.02;;;23.20;29.60;;;;;;4992836;28;20699;-52
2021/04/03 10:12:55;;;;;;;2.60;1.10;;;23.20;29.60;;;;;;4993260;28;20220;-48
2021/04/03 10:15:21;;;;;;;1.20;1.00;;;23.20;29.60;;;;;;4979315;28;20231;-55
2021/04/03 10:17:47;;;;;;;1.88;1.00;;;23.20;29.60;;;;;;4989090;28;20200;-54
2021/04/03 10:20:13;;;;;;;2.88;1.27;;;23.20;29.50;;;;;;4978306;28;20204;-56
2021/04/03 10:22:39;;;;;;;1.60;1.02;;;23.20;29.60;;;;;;4987758;28;20203;-47
2021/04/03 10:25:05;;;;;;;2.67;1.27;;;23.30;29.60;;;;;;4988599;28;20611;-52
2021/04/03 10:27:31;;;;;;;2.03;1.38;;;23.30;29.70;;;;;;4987243;28;20235;-50
2021/04/03 10:29:57;;;;;;;2.17;1.45;;;23.30;29.50;;;;;;4984972;28;20285;-54
2021/04/03 10:32:23;;;;;;;3.23;1.10;;;23.30;30.00;;;;;;4989848;28;20204;-52
2021/04/03 10:34:49;;;;;;;1.27;1.05;;;23.40;29.90;;;;;;4981437;28;20700;-50
2021/04/03 10:37:15;;;;;;;2.00;1.13;;;23.30;29.70;;;;;;4980538;28;20727;-53
2021/04/03 10:39:41;;;;;;;1.58;1.20;;;23.40;29.70;;;;;;4984328;28;20259;-46
2021/04/03 10:42:06;;;;;;;1.52;1.10;;;23.40;29.70;;;;;;4983876;28;20207;-51
2021/04/03 10:44:32;;;;;;;1.60;1.25;;;23.30;29.60;;;;;;4985036;28;20647;-55
2021/04/03 10:46:58;;;;;;;3.35;1.67;;;23.30;30.10;;;;;;4981768;28;20231;-53
2021/04/03 10:49:24;;;;;;;2.60;1.33;;;23.40;29.80;;;;;;4981175;28;20240;-44
2021/04/03 10:51:50;;;;;;;2.10;1.13;;;23.40;30.00;;;;;;4976546;28;20281;-53
2021/04/03 10:54:19;;;;;;;2.73;1.33;;;23.40;30.00;;;;;;4987034;28;20212;-48
2021/04/03 10:56:45;;;;;;;3.60;1.50;;;23.40;30.00;;;;;;4989965;28;20217;-52
2021/04/03 10:59:10;;;;;;;2.25;1.30;;;23.40;31.00;;;;;;4983880;28;20211;-48
2021/04/03 11:01:37;;;;;;;1.38;1.00;;;23.40;30.50;;;;;;4979252;28;20226;-49
2021/04/03 11:04:02;;;;;;;1.30;1.03;;;23.40;30.60;;;;;;4986093;28;20201;-53
2021/04/03 11:06:28;;;;;;;2.60;1.40;;;23.40;30.60;;;;;;4985124;28;20258;-48
2021/04/03 11:08:54;;;;;;;4.38;1.10;;;23.40;30.70;;;;;;4976992;28;20227;-49
2021/04/03 11:11:20;;;;;;;1.10;1.00;;;23.30;30.60;;;;;;4981113;28;20212;-50
2021/04/03 11:13:46;;;;;;;1.55;1.13;;;23.40;30.40;;;;;;4988927;28;20249;-52
2021/04/03 11:16:12;;;;;;;1.60;1.10;;;23.30;30.50;;;;;;4986397;28;20224;-49
2021/04/03 11:18:38;;;;;;;1.25;1.00;;;23.30;30.50;;;;;;4979826;28;20327;-47
2021/04/03 11:21:04;;;;;;;2.17;1.15;;;23.30;30.50;;;;;;4987397;28;20211;-46
2021/04/03 11:23:30;;;;;;;3.47;1.20;;;23.30;30.40;;;;;;4973678;28;20212;-46
2021/04/03 11:25:56;;;;;;;2.33;1.30;;;23.30;30.40;;;;;;4981887;28;20574;-43
2021/04/03 11:28:22;;;;;;;1.48;1.38;;;23.30;30.70;;;;;;4988660;28;20204;-45
2021/04/03 11:30:48;;;;;;;2.15;1.20;;;23.30;30.10;;;;;;4988669;28;20426;-48
2021/04/03 11:33:14;;;;;;;2.58;1.45;;;23.30;30.20;;;;;;4978739;28;20600;-48
2021/04/03 11:35:40;;;;;;;2.67;1.20;;;23.40;30.50;;;;;;4973593;28;20231;-57
2021/04/03 11:38:06;;;;;;;5.55;3.20;;;23.40;30.40;;;;;;4972499;28;20219;-45
2021/04/03 11:40:32;;;;;;;9.23;6.30;;;23.40;30.50;;;;;;4981010;28;20263;-54
2021/04/03 11:42:58;;;;;;;26.90;17.33;;;23.40;30.60;;;;;;4986638;28;20257;-52
2021/04/03 11:45:24;;;;;;;93.75;66.25;;;23.50;31.00;;;;;;4988764;28;20734;-47
2021/04/03 11:47:50;;;;;;;131.38;94.13;;;23.40;31.50;;;;;;4989924;28;20242;-49
2021/04/03 11:50:16;;;;;;;151.50;115.15;;;23.50;32.20;;;;;;4980355;28;20278;-48
2021/04/03 11:52:42;;;;;;;166.32;123.93;;;23.40;32.30;;;;;;4980629;28;20289;-44
2021/04/03 11:55:08;;;;;;;178.00;132.20;;;23.50;32.70;;;;;;4989734;28;20216;-48
2021/04/03 11:57:35;;;;;;;181.02;135.05;;;23.50;33.30;;;;;;4986956;28;20664;-44
2021/04/03 12:00:01;;;;;;;177.30;130.00;;;23.40;33.00;;;;;;4985960;28;20258;-47
2021/04/03 12:02:27;;;;;;;174.27;128.25;;;23.40;33.50;;;;;;4978657;28;20204;-44
2021/04/03 12:04:53;;;;;;;172.88;125.95;;;23.40;33.30;;;;;;4975157;28;20226;-43
2021/04/03 12:07:18;;;;;;;158.02;120.25;;;23.40;33.60;;;;;;4978641;28;20715;-44
2021/04/03 12:09:44;;;;;;;163.85;122.10;;;23.40;34.00;;;;;;4984325;28;20203;-44
2021/04/03 12:12:10;;;;;;;151.95;113.97;;;23.40;34.00;;;;;;4988357;28;20212;-46
2021/04/03 12:14:36;;;;;;;153.98;114.32;;;23.40;34.20;;;;;;4979682;28;20227;-47
2021/04/03 12:17:02;;;;;;;149.95;113.47;;;23.40;34.30;;;;;;4997194;28;20643;-57
2021/04/03 12:19:28;;;;;;;146.95;109.28;;;23.40;35.10;;;;;;5003461;28;20215;-52
2021/04/03 12:21:54;;;;;;;146.00;105.88;;;23.40;35.20;;;;;;4971415;28;20209;-45
2021/04/03 12:24:20;;;;;;;144.27;105.43;;;23.40;35.40;;;;;;4975968;28;20235;-47
2021/04/03 12:26:46;;;;;;;150.63;105.03;;;23.40;35.50;;;;;;4972029;28;20220;-48
2021/04/03 12:29:12;;;;;;;136.52;102.20;;;23.40;35.50;;;;;;4979962;28;20262;-44
2021/04/03 12:31:38;;;;;;;146.93;103.82;;;23.40;35.20;;;;;;4989958;28;20200;-44
2021/04/03 12:34:04;;;;;;;141.25;101.85;;;23.40;35.40;;;;;;4986479;28;20584;-43
2021/04/03 12:36:30;;;;;;;133.45;101.05;;;23.40;35.00;;;;;;4974178;28;20200;-42